L'Alcudia, Spain
Current Conditions -  °F | °C
As of 8:30 PM on Tuesday 21 Oct 2014 (Local Time) from LEVC Reporting Station
Clear Clear  
Wind Chill: 88°   Ceiling: Unl
Heat Index: 88°   Visibility: 6mi
Dew Point: 41°   Wind: 6mph
Humidity: 19%   Direction: 360°N
Pressure: 30.15"   Gusts: NA
Location:  39.2°N, 0.5°W
Report Text: LEVC 211830Z 36005KT 320V020 CAVOK 31/05 Q1021 NOSIG
Loading
Personal Weather Stations






























Interactive Weather Map
Tropical Storm Tracking
New forecast layout! Learn more

10-Day Weather Forecast

Advertisements
Track Severe Weather on mobile